createdAt,value
2022-11-22T00:01:53.925Z,9.01
2022-11-22T00:05:54.318Z,8.70
2022-11-22T00:09:54.556Z,8.42
2022-11-22T00:13:54.672Z,8.73
2022-11-22T00:17:57.371Z,8.70
2022-11-22T00:21:57.478Z,8.73
2022-11-22T00:25:57.870Z,8.71
2022-11-22T00:29:58.009Z,8.63
2022-11-22T00:34:00.786Z,8.64
2022-11-22T00:38:00.860Z,8.71
2022-11-22T00:42:01.997Z,8.63
2022-11-22T00:46:02.958Z,8.64
2022-11-22T00:50:06.378Z,8.65
2022-11-22T00:54:06.771Z,8.52
2022-11-22T00:58:06.904Z,8.73
2022-11-22T01:02:07.050Z,8.72
2022-11-22T01:06:09.745Z,8.88
2022-11-22T01:10:11.631Z,8.81
2022-11-22T01:14:11.749Z,8.84
2022-11-22T01:18:11.889Z,8.88
2022-11-22T01:22:14.796Z,8.74
2022-11-22T01:26:16.113Z,8.69
2022-11-22T01:30:17.242Z,8.73
2022-11-22T01:34:17.568Z,8.65
2022-11-22T01:38:20.527Z,8.66
2022-11-22T01:42:20.827Z,8.52
2022-11-22T01:46:37.085Z,8.45
2022-11-22T01:50:42.638Z,8.22
2022-11-22T01:54:50.753Z,8.29
2022-11-22T01:58:59.791Z,8.22
2022-11-22T02:03:05.468Z,8.34
2022-11-22T02:07:13.878Z,8.31
2022-11-22T02:11:17.112Z,8.20
2022-11-22T02:15:17.621Z,8.33
2022-11-22T02:19:24.894Z,8.32
2022-11-22T02:23:37.908Z,8.37
2022-11-22T02:27:40.647Z,8.54
2022-11-22T02:31:45.436Z,8.67
2022-11-22T02:35:47.041Z,8.63
2022-11-22T02:39:51.064Z,8.65
2022-11-22T02:43:53.795Z,8.68
2022-11-22T02:47:53.873Z,8.62
2022-11-22T02:51:56.009Z,8.53
2022-11-22T02:55:56.093Z,8.41
2022-11-22T02:59:58.788Z,8.31
2022-11-22T03:03:58.904Z,8.25
2022-11-22T03:07:59.107Z,8.35
2022-11-22T03:11:59.512Z,8.34
2022-11-22T03:16:02.416Z,8.54
2022-11-22T03:20:02.597Z,8.44
2022-11-22T03:24:03.074Z,8.43
2022-11-22T03:28:03.200Z,8.71
2022-11-22T03:32:06.024Z,8.71
2022-11-22T03:36:07.468Z,8.77
2022-11-22T03:40:09.474Z,8.70
2022-11-22T03:44:10.154Z,8.75
2022-11-22T03:48:12.860Z,9.04
2022-11-22T03:52:13.051Z,9.16
2022-11-22T03:56:13.343Z,9.19
2022-11-22T04:00:15.848Z,9.24
2022-11-22T04:04:19.732Z,9.29
2022-11-22T04:08:20.030Z,9.11
2022-11-22T04:12:20.388Z,9.22
2022-11-22T04:16:20.707Z,9.12
2022-11-22T04:20:39.151Z,9.22
2022-11-22T04:24:51.772Z,9.12
2022-11-22T04:29:09.127Z,9.37
2022-11-22T04:33:10.105Z,9.36
2022-11-22T04:37:12.879Z,9.25
2022-11-22T04:41:13.257Z,9.39
2022-11-22T04:45:14.182Z,9.52
2022-11-22T04:49:14.346Z,9.53
2022-11-22T04:53:15.264Z,9.78
2022-11-22T04:57:15.404Z,9.79
2022-11-22T05:01:15.622Z,9.94
2022-11-22T05:05:15.802Z,9.93
2022-11-22T05:09:18.857Z,9.87
2022-11-22T05:13:19.019Z,9.68
2022-11-22T05:17:19.156Z,9.63
2022-11-22T05:21:19.254Z,9.80
2022-11-22T05:25:25.476Z,9.75
2022-11-22T05:29:26.072Z,9.82
2022-11-22T05:33:26.210Z,9.83
2022-11-22T05:37:26.848Z,9.83
2022-11-22T05:41:29.680Z,9.90
2022-11-22T05:45:30.048Z,9.85
2022-11-22T05:49:30.510Z,9.94
2022-11-22T05:53:30.762Z,9.88
2022-11-22T05:57:36.004Z,9.85
2022-11-22T06:01:36.169Z,9.93
2022-11-22T06:05:36.282Z,9.99
2022-11-22T06:09:36.453Z,9.79
2022-11-22T06:13:42.117Z,9.81
2022-11-22T06:17:42.307Z,9.60
2022-11-22T06:21:42.771Z,9.42
2022-11-22T06:25:43.141Z,9.63
2022-11-22T06:29:46.077Z,9.93
2022-11-22T06:33:47.332Z,10.12
2022-11-22T06:37:47.490Z,10.11
2022-11-22T06:41:47.927Z,10.21
2022-11-22T06:45:50.821Z,10.14
2022-11-22T06:49:50.976Z,10.04
2022-11-22T06:53:52.580Z,10.01
2022-11-22T06:57:53.801Z,9.96
2022-11-22T07:01:59.016Z,10.00
2022-11-22T07:06:03.154Z,9.85
2022-11-22T07:10:03.227Z,9.86
2022-11-22T07:14:08.749Z,9.75
2022-11-22T07:18:12.047Z,9.90
2022-11-22T07:22:12.169Z,9.97
2022-11-22T07:26:16.131Z,9.93
2022-11-22T07:30:17.978Z,9.66
2022-11-22T07:34:23.899Z,9.73
2022-11-22T07:38:59.329Z,10.02
2022-11-22T07:43:08.264Z,10.17
2022-11-22T07:47:08.411Z,10.05
2022-11-22T07:51:14.763Z,10.21
2022-11-22T07:55:14.890Z,10.27
2022-11-22T07:59:15.141Z,10.14
2022-11-22T08:03:17.794Z,10.39
2022-11-22T08:07:21.144Z,10.70
2022-11-22T08:11:21.515Z,11.00
2022-11-22T08:15:22.225Z,10.75
2022-11-22T08:19:22.683Z,11.03
2022-11-22T08:23:25.735Z,11.20
2022-11-22T08:27:27.803Z,11.04
2022-11-22T08:31:29.655Z,11.04
2022-11-22T08:35:30.104Z,11.04
2022-11-22T08:39:33.376Z,10.52
2022-11-22T08:43:33.787Z,10.71
2022-11-22T08:47:38.138Z,10.76
2022-11-22T08:51:45.506Z,11.02
2022-11-22T08:56:04.217Z,10.48
2022-11-22T09:00:04.626Z,11.76
2022-11-22T09:04:04.719Z,12.07
2022-11-22T09:12:27.763Z,12.25
2022-11-22T09:16:31.822Z,12.12
2022-11-22T09:20:32.575Z,11.70
2022-11-22T09:24:37.248Z,11.81
2022-11-22T09:28:40.729Z,11.99
2022-11-22T09:32:41.020Z,12.19
2022-11-22T09:36:44.389Z,12.22
2022-11-22T09:40:49.804Z,12.43
2022-11-22T09:45:31.344Z,12.37
2022-11-22T09:49:40.200Z,12.46
2022-11-22T09:53:49.381Z,13.01
2022-11-22T09:57:55.089Z,13.27
2022-11-22T10:02:18.226Z,13.81
2022-11-22T10:06:30.070Z,13.98
2022-11-22T10:10:41.317Z,14.39
2022-11-22T10:14:55.963Z,14.62
2022-11-22T10:19:06.964Z,14.66
2022-11-22T10:23:19.778Z,14.32
2022-11-22T10:27:20.007Z,14.46
2022-11-22T10:31:29.225Z,14.22
2022-11-22T10:35:54.198Z,14.48
2022-11-22T10:40:16.180Z,13.96
2022-11-22T10:44:37.367Z,13.91
2022-11-22T10:48:49.094Z,13.99
2022-11-22T10:53:07.871Z,14.25
2022-11-22T10:57:21.689Z,14.27
2022-11-22T11:01:36.109Z,13.72
2022-11-22T11:06:15.287Z,13.55
2022-11-22T11:20:52.149Z,13.36
2022-11-22T11:24:55.476Z,13.95
2022-11-22T11:29:41.642Z,14.07
2022-11-22T11:33:44.450Z,14.42
2022-11-22T11:37:44.682Z,14.97
2022-11-22T11:41:44.830Z,14.84
2022-11-22T11:45:47.738Z,14.75
2022-11-22T11:49:54.446Z,14.66
2022-11-22T11:54:03.841Z,14.62
2022-11-22T11:58:07.581Z,14.55
2022-11-22T12:02:18.836Z,14.69
2022-11-22T12:06:20.122Z,14.47
2022-11-22T12:10:46.811Z,14.45
2022-11-22T12:15:10.753Z,14.82
2022-11-22T12:19:27.543Z,15.06
2022-11-22T12:23:36.336Z,14.96
2022-11-22T12:27:36.671Z,14.57
2022-11-22T12:31:44.409Z,14.47
2022-11-22T12:35:49.466Z,14.07
2022-11-22T12:39:56.206Z,14.21
2022-11-22T12:44:02.690Z,14.33
2022-11-22T12:48:09.358Z,14.32
2022-11-22T12:52:26.425Z,14.22
2022-11-22T12:56:34.042Z,14.55
2022-11-22T13:00:44.694Z,14.76
2022-11-22T13:04:59.922Z,14.94
2022-11-22T13:09:08.312Z,14.68
2022-11-22T13:13:25.231Z,14.80
2022-11-22T13:17:30.778Z,14.36
2022-11-22T13:21:46.483Z,14.43
2022-11-22T13:26:14.555Z,14.19
2022-11-22T13:30:23.837Z,13.86
2022-11-22T13:34:29.380Z,14.21
2022-11-22T13:38:31.301Z,14.57
2022-11-22T13:42:35.032Z,15.07
2022-11-22T13:46:56.838Z,15.68
2022-11-22T13:51:06.516Z,15.12
2022-11-22T13:55:36.033Z,14.49
2022-11-22T13:59:46.605Z,14.34
2022-11-22T14:03:47.286Z,14.36
2022-11-22T14:07:52.159Z,14.28
2022-11-22T14:12:26.360Z,14.01
2022-11-22T14:16:53.587Z,13.68
2022-11-22T14:21:07.280Z,13.66
2022-11-22T14:25:33.378Z,13.20
2022-11-22T14:30:05.880Z,13.09
2022-11-22T14:34:27.658Z,13.25
2022-11-22T14:38:35.822Z,13.17
2022-11-22T14:42:55.786Z,13.46
2022-11-22T14:47:04.448Z,13.25
2022-11-22T14:51:18.175Z,13.22
2022-11-22T14:55:23.193Z,13.25
2022-11-22T15:00:03.187Z,12.91
2022-11-22T15:09:13.831Z,12.79
2022-11-22T15:09:52.945Z,12.42
2022-11-22T15:14:46.912Z,12.39
2022-11-22T15:59:03.865Z,12.75
2022-11-22T16:03:07.119Z,12.67
2022-11-22T16:07:10.286Z,12.95
2022-11-22T16:11:19.477Z,12.70
2022-11-22T16:15:36.342Z,12.90
2022-11-22T16:19:39.230Z,12.78
2022-11-22T16:23:40.979Z,12.79
2022-11-22T16:27:49.118Z,12.61
2022-11-22T16:31:49.843Z,12.75
2022-11-22T16:35:57.021Z,12.51
2022-11-22T16:39:57.236Z,12.63
2022-11-22T16:44:00.003Z,12.74
2022-11-22T16:48:24.537Z,12.77
2022-11-22T16:52:23.124Z,12.90
2022-11-22T16:56:26.600Z,12.99
2022-11-22T17:00:27.446Z,12.89
2022-11-22T17:04:28.272Z,12.78
2022-11-22T17:08:31.111Z,12.79
2022-11-22T17:12:33.820Z,12.60
2022-11-22T17:16:34.415Z,12.72
2022-11-22T17:20:34.760Z,12.51
2022-11-22T17:24:38.107Z,12.77
2022-11-22T17:28:38.518Z,12.78
2022-11-22T17:32:40.313Z,12.65
2022-11-22T17:36:40.898Z,12.61
2022-11-22T17:40:44.835Z,12.52
2022-11-22T17:44:44.985Z,12.45
2022-11-22T17:48:45.239Z,12.35
2022-11-22T17:52:45.364Z,12.23
2022-11-22T17:56:48.092Z,12.15
2022-11-22T18:00:48.208Z,12.14
2022-11-22T18:04:48.302Z,12.32
2022-11-22T18:08:48.721Z,12.34
2022-11-22T18:13:19.799Z,12.39
2022-11-22T18:17:12.182Z,12.41
2022-11-22T18:21:17.139Z,12.38
2022-11-22T18:25:18.007Z,12.18
2022-11-22T18:29:42.098Z,12.02
2022-11-22T18:33:40.862Z,11.89
2022-11-22T18:37:41.542Z,11.81
2022-11-22T18:41:47.091Z,11.63
2022-11-22T18:45:49.937Z,11.63
2022-11-22T18:49:50.940Z,11.88
2022-11-22T18:53:51.242Z,11.85
2022-11-22T18:57:53.940Z,11.91
2022-11-22T19:01:56.953Z,11.98
2022-11-22T19:05:57.126Z,12.26
2022-11-22T19:09:57.364Z,12.44
2022-11-22T19:13:57.627Z,12.46
2022-11-22T19:18:00.471Z,12.35
2022-11-22T19:22:00.670Z,12.35
2022-11-22T19:26:00.969Z,12.53
2022-11-22T19:30:01.200Z,12.49
2022-11-22T19:34:04.158Z,12.56
2022-11-22T19:38:04.358Z,12.35
2022-11-22T19:42:04.585Z,12.33
2022-11-22T19:46:05.453Z,12.12
2022-11-22T19:50:09.371Z,11.72
2022-11-22T19:54:10.741Z,12.01
2022-11-22T19:58:11.018Z,12.23
2022-11-22T20:02:13.586Z,12.25
2022-11-22T20:06:17.317Z,12.28
2022-11-22T20:10:18.782Z,12.22
2022-11-22T20:14:19.137Z,12.10
2022-11-22T20:18:19.353Z,12.11
2022-11-22T20:22:22.165Z,12.18
2022-11-22T20:26:25.308Z,12.09
2022-11-22T20:30:25.474Z,11.97
2022-11-22T20:34:26.073Z,12.12
2022-11-22T20:38:28.958Z,12.15
2022-11-22T20:42:36.456Z,11.86
2022-11-22T20:46:40.511Z,11.68
2022-11-22T20:50:40.830Z,11.60
2022-11-22T20:54:43.656Z,11.86
2022-11-22T20:58:44.153Z,11.82
2022-11-22T21:02:44.459Z,11.97
2022-11-22T21:06:44.665Z,11.98
2022-11-22T21:10:47.551Z,12.04
2022-11-22T21:14:51.322Z,12.05
2022-11-22T21:18:54.419Z,11.98
2022-11-22T21:22:56.506Z,11.97
2022-11-22T21:26:59.262Z,11.99
2022-11-22T21:31:00.410Z,11.79
2022-11-22T21:35:00.808Z,11.90
2022-11-22T21:39:01.245Z,12.06
2022-11-22T21:43:04.061Z,11.98
2022-11-22T21:47:04.828Z,12.05
2022-11-22T21:51:13.577Z,11.66
2022-11-22T21:55:22.627Z,11.21
2022-11-22T21:59:25.756Z,11.85
2022-11-22T22:03:27.440Z,11.85
2022-11-22T22:07:51.528Z,11.92
2022-11-22T22:11:49.063Z,11.89
2022-11-22T22:15:52.099Z,11.76
2022-11-22T22:19:52.501Z,11.84
2022-11-22T22:23:53.577Z,11.91
2022-11-22T22:27:53.944Z,11.75
2022-11-22T22:31:56.804Z,11.70
2022-11-22T22:35:59.868Z,11.30
2022-11-22T22:40:20.572Z,11.27
2022-11-22T22:44:23.389Z,11.58
2022-11-22T22:48:26.689Z,11.60
2022-11-22T22:52:27.367Z,11.42
2022-11-22T22:56:28.178Z,11.80
2022-11-22T23:00:28.556Z,11.67
2022-11-22T23:04:31.723Z,11.59
2022-11-22T23:08:31.878Z,11.57
2022-11-22T23:12:32.191Z,11.60
2022-11-22T23:16:32.554Z,11.54
2022-11-22T23:20:35.284Z,11.57
2022-11-22T23:24:36.303Z,11.58
2022-11-22T23:28:36.756Z,11.68
2022-11-22T23:32:37.013Z,11.48
2022-11-22T23:36:41.233Z,11.39
2022-11-22T23:40:41.498Z,11.39
2022-11-22T23:44:41.855Z,11.51
2022-11-22T23:48:41.988Z,11.52
2022-11-22T23:52:44.668Z,11.52
2022-11-22T23:56:45.469Z,11.58
